Time;durP1;ratioP1;P1;durP2;ratioP2;P2;SDS_P1;SDS_P2;PMS_P1;PMS_P2;Temp;Humidity;BMP_temperature;BMP_pressure;BME280_temperature;BME280_humidity;BME280_pressure;Samples;Min_cycle;Max_cycle;Signal;HPM_P1;HPM_P2
2023/07/29 00:02:00;;;;;;;5.82;2.72;;;;;;;20.02;100.00;100222.25;5009256;28;20042;-78
2023/07/29 00:04:25;;;;;;;7.88;2.97;;;;;;;19.91;100.00;100211.16;5006482;28;20478;-77
2023/07/29 00:06:51;;;;;;;3.58;2.33;;;;;;;19.95;100.00;100216.31;5009600;28;20398;-77
2023/07/29 00:09:16;;;;;;;5.40;1.73;;;;;;;19.59;100.00;100141.44;5000499;28;20041;-77
2023/07/29 00:11:42;;;;;;;5.85;3.45;;;;;;;20.07;100.00;100216.72;5009196;28;20025;-76
2023/07/29 00:14:07;;;;;;;3.47;1.45;;;;;;;19.61;100.00;100126.28;5009762;28;20091;-76
2023/07/29 00:16:32;;;;;;;4.85;2.40;;;;;;;19.53;100.00;100107.13;5007169;28;20046;-75
2023/07/29 00:18:58;;;;;;;3.60;1.88;;;;;;;19.76;100.00;100159.41;5004590;28;20493;-76
2023/07/29 00:21:23;;;;;;;2.50;1.98;;;;;;;20.07;100.00;100230.03;5008427;28;20042;-76
2023/07/29 00:23:49;;;;;;;4.15;2.47;;;;;;;19.72;100.00;100187.09;5003687;28;20037;-78
2023/07/29 00:26:14;;;;;;;3.85;1.92;;;;;;;19.28;100.00;100115.25;5006025;28;20049;-76
2023/07/29 00:28:40;;;;;;;3.80;1.85;;;;;;;19.74;100.00;100225.19;5000954;28;20038;-79
2023/07/29 00:31:05;;;;;;;3.80;1.90;;;;;;;19.68;100.00;100212.06;5001451;28;20076;-76
2023/07/29 00:33:31;;;;;;;4.82;2.20;;;;;;;19.08;100.00;100122.22;5007843;28;20830;-76
2023/07/29 00:35:56;;;;;;;6.30;2.63;;;;;;;19.68;100.00;100212.97;5003138;28;20049;-76
2023/07/29 00:38:22;;;;;;;4.57;1.60;;;;;;;19.86;100.00;100218.47;5009116;28;20430;-76
2023/07/29 00:40:47;;;;;;;2.17;1.02;;;;;;;20.01;100.00;100213.34;5006676;28;20058;-76
2023/07/29 00:43:13;;;;;;;3.45;1.98;;;;;;;19.94;100.00;100208.38;4999996;28;20045;-76
2023/07/29 00:45:39;;;;;;;2.70;1.80;;;;;;;19.33;100.00;100115.91;5000465;28;20120;-76
2023/07/29 00:48:04;;;;;;;5.38;1.77;;;;;;;19.17;100.00;100100.59;5006724;28;20068;-76
2023/07/29 00:50:32;;;;;;;3.50;2.33;;;;;;;19.51;100.00;100175.50;5002426;28;20042;-75
2023/07/29 00:52:57;;;;;;;3.03;2.67;;;;;;;19.41;100.00;100167.03;5005364;28;20061;-77
2023/07/29 00:55:24;;;;;;;3.92;2.22;;;;;;;19.59;100.00;100197.34;5007616;28;20133;-75
2023/07/29 00:57:54;;;;;;;2.58;1.27;;;;;;;19.64;100.00;100194.50;4998062;28;20038;-77
2023/07/29 01:00:19;;;;;;;3.10;1.55;;;;;;;19.55;100.00;100209.91;5008226;28;20057;-76
2023/07/29 01:02:45;;;;;;;2.45;1.50;;;;;;;18.94;100.00;100100.63;4999560;28;20030;-77
2023/07/29 01:05:13;;;;;;;6.97;2.33;;;;;;;19.33;100.00;100167.31;5008065;28;20037;-77
2023/07/29 01:08:05;;;;;;;3.95;2.17;;;;;;;18.33;100.00;100006.41;5007543;28;20089;-76
2023/07/29 01:10:46;;;;;;;7.28;3.47;;;;;;;18.77;100.00;100095.97;5005988;28;20097;-75
2023/07/29 01:13:26;;;;;;;6.40;2.10;;;;;;;18.87;100.00;100109.75;5007319;28;20034;-77
2023/07/29 01:15:58;;;;;;;2.15;1.05;;;;;;;19.25;100.00;100190.72;5003117;28;20060;-76
2023/07/29 01:18:29;;;;;;;6.53;2.53;;;;;;;19.05;100.00;100170.22;5007047;28;20069;-76
2023/07/29 01:20:59;;;;;;;9.20;3.30;;;;;;;19.26;100.00;100215.53;5004969;28;20044;-77
2023/07/29 01:23:26;;;;;;;3.97;1.90;;;;;;;19.01;100.00;100157.97;5010001;28;20034;-75
2023/07/29 01:25:51;;;;;;;3.67;1.48;;;;;;;19.17;100.00;100188.38;5000898;28;20050;-76
2023/07/29 01:28:17;;;;;;;4.13;1.85;;;;;;;19.30;100.00;100194.06;5003485;28;20176;-75
2023/07/29 01:30:44;;;;;;;3.45;1.58;;;;;;;19.45;100.00;100211.19;5003718;28;20053;-76
2023/07/29 01:33:20;;;;;;;3.17;1.65;;;;;;;19.34;100.00;100189.50;5007851;28;20500;-76
2023/07/29 01:35:49;;;;;;;1.30;0.93;;;;;;;18.80;100.00;100106.50;5000314;28;20058;-76
2023/07/29 01:38:23;;;;;;;4.35;2.05;;;;;;;18.78;100.00;100081.75;5006024;28;20454;-75
2023/07/29 01:40:50;;;;;;;3.85;1.95;;;;;;;19.39;100.00;100192.84;5007680;28;20038;-76
2023/07/29 01:43:18;;;;;;;3.92;1.63;;;;;;;18.80;100.00;100090.56;5004707;28;20038;-77
2023/07/29 01:45:44;;;;;;;16.73;1.65;;;;;;;18.79;100.00;100110.06;5008107;28;20048;-75
2023/07/29 01:48:09;;;;;;;4.63;1.58;;;;;;;19.02;100.00;100180.13;5004685;28;20038;-74
2023/07/29 01:50:35;;;;;;;2.80;1.88;;;;;;;18.54;100.00;100121.63;5005399;28;20493;-76
2023/07/29 01:53:00;;;;;;;3.50;1.92;;;;;;;18.68;100.00;100160.97;5007686;28;20034;-76
2023/07/29 01:55:26;;;;;;;2.22;1.45;;;;;;;19.01;100.00;100215.59;5005774;28;20042;-76
2023/07/29 01:57:51;;;;;;;3.83;1.88;;;;;;;18.99;100.00;100213.00;5000556;28;20045;-75
2023/07/29 02:00:18;;;;;;;8.65;2.40;;;;;;;18.30;100.00;100106.56;5007694;28;20069;-75
2023/07/29 02:02:44;;;;;;;4.82;2.22;;;;;;;18.38;100.00;100116.91;5007018;28;20044;-75
2023/07/29 02:05:09;;;;;;;2.80;2.58;;;;;;;18.93;100.00;100206.13;4999992;28;20636;-76
2023/07/29 02:07:35;;;;;;;3.33;1.67;;;;;;;18.87;100.00;100222.31;5006897;28;21314;-76
2023/07/29 02:10:00;;;;;;;5.03;2.90;;;;;;;18.27;100.00;100122.63;5006966;28;20100;-76
2023/07/29 02:12:26;;;;;;;4.22;2.15;;;;;;;18.33;100.00;100141.00;5007308;28;20355;-76
2023/07/29 02:14:51;;;;;;;2.10;1.50;;;;;;;18.34;100.00;100124.16;5003173;28;20088;-76
2023/07/29 02:17:17;;;;;;;3.65;1.65;;;;;;;18.81;100.00;100203.94;5007487;28;20026;-76
2023/07/29 02:19:42;;;;;;;2.15;1.40;;;;;;;18.94;100.00;100212.28;4999044;28;20045;-76
2023/07/29 02:22:08;;;;;;;4.40;1.92;;;;;;;18.37;100.00;100109.88;5006678;28;20093;-76
2023/07/29 02:24:33;;;;;;;4.03;1.50;;;;;;;18.30;100.00;100118.06;5006438;28;20486;-77
2023/07/29 02:26:59;;;;;;;4.72;2.28;;;;;;;18.30;100.00;100110.09;5002109;28;20036;-76
2023/07/29 02:29:25;;;;;;;3.35;1.67;;;;;;;18.03;100.00;100052.69;4998283;28;20026;-75
2023/07/29 02:31:51;;;;;;;2.42;1.35;;;;;;;18.78;100.00;100180.13;4999510;28;20049;-77
2023/07/29 02:34:17;;;;;;;2.83;1.33;;;;;;;18.44;100.00;100125.53;4999743;28;20061;-76
2023/07/29 02:36:42;;;;;;;4.63;1.98;;;;;;;18.66;100.00;100178.75;5004582;28;20065;-77
2023/07/29 02:39:08;;;;;;;1.90;1.05;;;;;;;18.51;100.00;100150.09;5005928;28;20046;-76
2023/07/29 02:41:33;;;;;;;2.75;1.13;;;;;;;18.49;100.00;100150.13;5030519;28;20473;-77
2023/07/29 02:43:59;;;;;;;3.25;1.33;;;;;;;18.91;100.00;100234.56;5000354;28;20105;-77
2023/07/29 02:46:24;;;;;;;4.35;1.33;;;;;;;18.77;100.00;100236.84;5001826;28;20058;-76
2023/07/29 02:48:50;;;;;;;3.20;1.73;;;;;;;18.69;100.00;100226.47;5006054;28;20066;-76
2023/07/29 02:51:16;;;;;;;6.78;1.63;;;;;;;18.60;100.00;100202.91;4999789;28;20054;-75
2023/07/29 02:53:41;;;;;;;4.20;2.30;;;;;;;18.93;100.00;100247.78;5000159;28;20370;-77
2023/07/29 02:56:09;;;;;;;2.65;1.50;;;;;;;18.87;100.00;100254.22;5003467;28;20120;-74
2023/07/29 02:58:34;;;;;;;3.63;1.95;;;;;;;18.88;100.00;100266.59;4996170;28;20047;-74
2023/07/29 03:01:02;;;;;;;4.75;1.98;;;;;;;18.87;100.00;100256.88;5035146;28;20112;-74
2023/07/29 03:03:27;;;;;;;2.03;1.45;;;;;;;17.99;100.00;100118.31;5006311;28;20121;-76
2023/07/29 03:06:07;;;;;;;2.92;1.35;;;;;;;18.48;100.00;100219.28;5006172;28;20121;-74
2023/07/29 03:08:33;;;;;;;5.25;2.17;;;;;;;17.95;100.00;100132.59;5001832;28;20034;-74
2023/07/29 03:11:08;;;;;;;6.65;5.47;;;;;;;18.72;100.00;100262.72;5003380;28;20355;-76
2023/07/29 03:13:34;;;;;;;2.70;1.55;;;;;;;18.54;100.00;100248.28;5005994;28;20042;-74
2023/07/29 03:16:07;;;;;;;2.78;1.25;;;;;;;18.13;100.00;100162.97;5003671;28;20049;-76
2023/07/29 03:18:33;;;;;;;4.53;2.05;;;;;;;18.25;100.00;100220.09;5012255;28;20042;-74
2023/07/29 03:20:58;;;;;;;2.95;1.75;;;;;;;18.24;100.00;100253.75;5004986;28;20553;-76
2023/07/29 03:23:24;;;;;;;6.97;2.25;;;;;;;18.55;100.00;100265.97;5006440;28;20389;-75
2023/07/29 03:25:56;;;;;;;4.97;2.03;;;;;;;18.57;100.00;100272.13;5004534;28;20058;-75
2023/07/29 03:28:25;;;;;;;2.85;2.20;;;;;;;17.84;100.00;100154.22;4999965;28;20030;-73
2023/07/29 03:30:50;;;;;;;5.85;2.28;;;;;;;18.52;100.00;100260.78;5007691;28;20892;-75
2023/07/29 03:33:16;;;;;;;1.85;1.15;;;;;;;18.45;100.00;100245.94;5009366;28;20034;-74
2023/07/29 03:35:44;;;;;;;3.92;1.48;;;;;;;17.89;100.00;100154.06;5005267;28;20442;-75
2023/07/29 03:38:10;;;;;;;2.45;1.38;;;;;;;18.46;100.00;100288.41;5005965;28;20043;-76
2023/07/29 03:40:36;;;;;;;2.30;1.15;;;;;;;18.51;100.00;100257.22;5008876;28;20050;-77
2023/07/29 03:43:01;;;;;;;2.83;1.48;;;;;;;17.97;100.00;100151.16;4999285;28;20054;-76
2023/07/29 03:45:27;;;;;;;3.00;0.90;;;;;;;18.49;100.00;100274.16;5000354;28;20049;-76
2023/07/29 03:47:52;;;;;;;5.40;1.65;;;;;;;18.51;100.00;100273.19;5009099;28;20045;-76
2023/07/29 03:50:17;;;;;;;2.92;1.73;;;;;;;17.86;100.00;100148.84;5007591;28;20454;-77
2023/07/29 03:52:43;;;;;;;3.13;2.00;;;;;;;18.58;100.00;100241.94;5004391;28;20072;-75
2023/07/29 03:55:09;;;;;;;2.85;1.60;;;;;;;18.60;100.00;100247.22;5009251;28;20062;-75
2023/07/29 03:57:34;;;;;;;3.55;1.25;;;;;;;18.74;100.00;100272.38;5001008;28;20070;-76
2023/07/29 04:00:00;;;;;;;3.28;2.17;;;;;;;18.46;100.00;100234.41;5009442;28;20034;-77
2023/07/29 04:02:25;;;;;;;2.10;1.33;;;;;;;18.09;100.00;100170.16;4998075;28;20076;-76
2023/07/29 04:04:51;;;;;;;2.53;1.35;;;;;;;18.10;100.00;100160.44;4999515;28;20375;-76
2023/07/29 04:07:17;;;;;;;4.43;2.20;;;;;;;18.73;100.00;100265.31;5006980;28;20263;-74
2023/07/29 04:09:43;;;;;;;7.32;1.92;;;;;;;18.72;100.00;100260.06;5005006;28;20540;-76
2023/07/29 04:12:09;;;;;;;1.60;0.82;;;;;;;18.67;100.00;100241.63;4999812;28;20066;-77
2023/07/29 04:14:35;;;;;;;1.65;0.75;;;;;;;18.46;100.00;100207.84;5010030;28;20033;-77
2023/07/29 04:17:00;;;;;;;1.52;0.90;;;;;;;18.95;100.00;100270.75;5008482;28;20461;-76
2023/07/29 04:19:26;;;;;;;3.03;1.00;;;;;;;18.84;100.00;100256.97;5006450;28;20097;-77
2023/07/29 04:21:51;;;;;;;3.95;1.80;;;;;;;18.43;100.00;100211.47;5008921;28;20382;-77
2023/07/29 04:24:19;;;;;;;3.75;1.60;;;;;;;18.13;100.00;100134.63;5006437;28;20064;-77
2023/07/29 04:26:45;;;;;;;2.25;1.38;;;;;;;18.23;100.00;100148.44;5002196;28;20080;-75
2023/07/29 04:29:11;;;;;;;1.95;1.50;;;;;;;18.95;100.00;100246.81;5002324;28;20069;-76
2023/07/29 04:31:37;;;;;;;2.80;2.00;;;;;;;19.09;100.00;100250.75;5008333;28;20046;-76
2023/07/29 04:34:02;;;;;;;4.57;2.13;;;;;;;18.72;100.00;100167.88;5008374;28;20076;-76
2023/07/29 04:36:28;;;;;;;3.83;1.40;;;;;;;18.85;100.00;100183.44;5008462;28;20042;-75
2023/07/29 04:38:53;;;;;;;3.45;1.77;;;;;;;19.47;100.00;100270.56;5002309;28;20121;-76
2023/07/29 04:41:18;;;;;;;2.58;1.40;;;;;;;19.26;100.00;100221.72;5008056;28;20034;-75
2023/07/29 04:43:44;;;;;;;5.28;2.88;;;;;;;19.26;100.00;100208.41;5005700;28;20489;-75
2023/07/29 04:46:10;;;;;;;3.20;2.10;;;;;;;19.73;100.00;100266.88;5007518;28;20046;-76
2023/07/29 04:48:36;;;;;;;2.22;1.63;;;;;;;19.14;100.00;100164.53;5001340;28;20096;-76
2023/07/29 04:51:01;;;;;;;4.05;1.73;;;;;;;19.19;100.00;100141.28;5007808;28;20520;-75
2023/07/29 04:53:27;;;;;;;2.30;1.25;;;;;;;20.03;100.00;100270.09;5008052;28;20037;-75
2023/07/29 04:55:52;;;;;;;3.83;1.60;;;;;;;19.58;100.00;100177.00;5006310;28;20049;-74
2023/07/29 04:58:18;;;;;;;3.28;1.33;;;;;;;20.26;100.00;100272.75;5006741;28;20042;-76
2023/07/29 05:00:43;;;;;;;2.60;1.20;;;;;;;20.30;100.00;100277.88;5006781;28;20049;-77
2023/07/29 05:03:08;;;;;;;2.88;1.73;;;;;;;20.44;100.00;100288.81;5008407;28;20045;-76
2023/07/29 05:05:34;;;;;;;2.13;1.15;;;;;;;20.14;100.00;100205.72;5004750;28;20446;-75
2023/07/29 05:07:59;;;;;;;3.75;1.50;;;;;;;20.13;100.00;100184.47;4998892;28;20088;-75
2023/07/29 05:10:25;;;;;;;2.10;1.15;;;;;;;20.69;100.00;100281.59;5005027;28;20050;-76
2023/07/29 05:12:50;;;;;;;2.50;1.40;;;;;;;20.73;100.00;100268.06;5006284;28;20136;-76
2023/07/29 05:15:16;;;;;;;2.05;1.33;;;;;;;20.67;100.00;100252.31;5005223;28;20351;-77
2023/07/29 05:17:42;;;;;;;3.05;1.30;;;;;;;21.00;100.00;100268.63;4995826;28;20608;-75
2023/07/29 05:20:08;;;;;;;3.30;1.60;;;;;;;21.79;100.00;100278.31;5021819;28;20029;-77
2023/07/29 05:22:33;;;;;;;2.67;0.95;;;;;;;22.15;100.00;100291.66;4994574;28;20049;-75
2023/07/29 05:24:58;;;;;;;4.63;1.13;;;;;;;21.71;100.00;100179.88;5006913;28;20050;-74
2023/07/29 05:27:24;;;;;;;2.95;1.38;;;;;;;22.41;100.00;100249.41;5002079;28;20389;-76
2023/07/29 05:29:49;;;;;;;1.75;1.10;;;;;;;22.73;100.00;100223.63;5003111;28;20030;-76
2023/07/29 05:32:15;;;;;;;1.88;0.90;;;;;;;23.49;100.00;100288.22;4998355;28;20041;-79
2023/07/29 05:34:40;;;;;;;2.00;1.15;;;;;;;23.01;100.00;100174.00;4998844;28;20044;-77
2023/07/29 05:37:06;;;;;;;2.22;1.05;;;;;;;24.67;100.00;100258.19;5006244;28;20042;-77
2023/07/29 05:39:32;;;;;;;1.88;0.93;;;;;;;24.68;100.00;100195.50;5007288;28;20042;-76
2023/07/29 05:41:57;;;;;;;2.50;1.70;;;;;;;25.27;100.00;100202.50;5001804;28;20041;-78
2023/07/29 05:44:23;;;;;;;2.97;1.40;;;;;;;25.95;99.04;100216.03;4999215;28;20038;-77
2023/07/29 05:46:48;;;;;;;3.85;0.98;;;;;;;26.52;96.61;100261.44;4998041;28;20406;-75
2023/07/29 05:49:14;;;;;;;1.33;1.00;;;;;;;26.31;89.78;100175.84;4990930;28;20399;-76
2023/07/29 05:51:39;;;;;;;1.42;0.95;;;;;;;26.79;84.34;100195.94;5001743;28;20045;-75
2023/07/29 05:54:05;;;;;;;3.88;1.20;;;;;;;25.84;78.21;100208.66;5006786;28;20038;-76
2023/07/29 05:56:31;;;;;;;2.10;1.27;;;;;;;26.23;84.47;100288.50;5007147;28;20026;-77
2023/07/29 05:58:57;;;;;;;1.92;1.10;;;;;;;26.41;76.69;100310.63;4999127;28;20038;-75
2023/07/29 06:01:22;;;;;;;3.10;1.50;;;;;;;26.60;83.11;100310.28;5003509;28;20088;-66
2023/07/29 06:03:48;;;;;;;1.17;0.57;;;;;;;26.76;72.39;100326.22;5004002;28;20435;-67
2023/07/29 06:06:13;;;;;;;1.92;1.05;;;;;;;26.05;75.70;100271.78;5006991;28;20493;-65
2023/07/29 06:08:39;;;;;;;5.20;1.30;;;;;;;26.47;73.31;100220.53;5001847;28;20064;-66
2023/07/29 06:11:06;;;;;;;2.17;0.90;;;;;;;26.95;67.32;100224.34;5006738;28;20441;-67
2023/07/29 06:13:32;;;;;;;2.30;1.13;;;;;;;27.69;66.38;100286.38;5006427;28;20038;-65
2023/07/29 06:15:58;;;;;;;1.25;0.90;;;;;;;27.72;62.35;100285.28;5006645;28;20061;-67
2023/07/29 06:18:24;;;;;;;2.22;1.23;;;;;;;27.31;61.87;100206.50;4996638;28;20034;-66
2023/07/29 06:20:50;;;;;;;2.70;1.25;;;;;;;27.26;60.39;100294.91;5006679;28;20030;-66
2023/07/29 06:23:15;;;;;;;3.60;1.67;;;;;;;28.27;64.49;100286.59;5006815;28;20045;-65
2023/07/29 06:25:41;;;;;;;1.23;0.73;;;;;;;28.45;59.81;100273.53;5002126;28;20138;-65
2023/07/29 06:28:06;;;;;;;2.55;0.90;;;;;;;28.60;59.74;100277.75;5001544;28;20033;-66
2023/07/29 06:30:32;;;;;;;10.25;1.48;;;;;;;28.87;60.55;100305.44;5001649;28;20339;-65
2023/07/29 06:32:57;;;;;;;2.47;1.55;;;;;;;28.26;58.48;100295.66;4999749;28;20035;-67
2023/07/29 06:35:23;;;;;;;1.73;0.95;;;;;;;28.92;57.04;100303.25;4996755;28;20570;-66
2023/07/29 06:37:49;;;;;;;7.05;1.40;;;;;;;27.93;54.34;100293.66;5004539;28;20512;-65
2023/07/29 06:40:14;;;;;;;2.80;1.10;;;;;;;28.38;53.68;100210.19;5001533;28;20038;-68
2023/07/29 06:42:40;;;;;;;2.30;1.17;;;;;;;28.62;52.88;100302.81;5003359;28;20111;-66
2023/07/29 06:45:06;;;;;;;1.38;0.80;;;;;;;28.19;53.77;100267.44;5002920;28;20045;-69
2023/07/29 06:47:32;;;;;;;2.42;1.25;;;;;;;27.67;53.08;100222.75;4998014;28;20026;-66
2023/07/29 06:49:57;;;;;;;2.28;1.00;;;;;;;28.57;54.11;100305.00;4995876;28;20144;-66
2023/07/29 06:52:23;;;;;;;2.88;0.90;;;;;;;28.50;52.96;100274.06;5003659;28;20526;-67
2023/07/29 06:54:48;;;;;;;2.33;1.02;;;;;;;28.58;50.69;100189.75;5003696;28;20038;-67
2023/07/29 06:57:14;;;;;;;1.73;0.93;;;;;;;29.16;50.02;100300.47;5004401;28;20053;-67
2023/07/29 06:59:39;;;;;;;15.77;1.20;;;;;;;28.35;52.74;100153.75;4994751;28;20458;-67
2023/07/29 07:02:06;;;;;;;3.28;1.38;;;;;;;28.44;54.35;100207.00;4996719;28;20508;-67
2023/07/29 07:04:31;;;;;;;1.60;1.10;;;;;;;28.24;69.47;100194.19;5002006;28;20161;-69
2023/07/29 07:06:57;;;;;;;1.98;0.80;;;;;;;28.73;60.63;100301.97;5001441;28;20089;-68
2023/07/29 07:09:22;;;;;;;1.20;0.70;;;;;;;27.88;53.65;100202.28;5004038;28;20042;-68
2023/07/29 07:11:48;;;;;;;1.58;0.70;;;;;;;28.87;57.15;100297.31;5001362;28;20564;-68
2023/07/29 07:14:13;;;;;;;3.38;1.10;;;;;;;28.57;54.16;100217.75;4997197;28;20030;-71
2023/07/29 07:16:39;;;;;;;3.70;1.08;;;;;;;28.36;55.95;100196.81;5000409;28;20517;-68
2023/07/29 07:19:05;;;;;;;2.47;1.23;;;;;;;28.82;55.78;100292.28;5004114;28;20477;-69
2023/07/29 07:21:32;;;;;;;2.47;1.15;;;;;;;28.69;58.85;100284.28;4997285;28;20050;-69
2023/07/29 07:23:57;;;;;;;2.03;1.42;;;;;;;28.10;55.14;100200.69;5005561;28;20128;-69
2023/07/29 07:26:23;;;;;;;1.20;0.73;;;;;;;27.14;51.76;100193.38;5006668;28;20444;-69
2023/07/29 07:28:48;;;;;;;1.17;0.88;;;;;;;27.93;60.37;100285.56;4991532;28;20546;-66
2023/07/29 07:31:16;;;;;;;3.25;1.73;;;;;;;27.89;52.34;100289.50;5005974;28;20054;-66
2023/07/29 07:33:41;;;;;;;2.05;1.00;;;;;;;27.75;52.04;100268.91;5005693;28;20046;-65
2023/07/29 07:36:07;;;;;;;2.47;1.17;;;;;;;27.39;51.14;100202.38;5002364;28;20500;-66
2023/07/29 07:38:32;;;;;;;2.20;1.30;;;;;;;27.19;58.82;100195.75;4997779;28;20038;-66
2023/07/29 07:40:58;;;;;;;3.25;1.13;;;;;;;27.19;53.25;100214.59;5005629;28;20128;-65
2023/07/29 07:43:24;;;;;;;1.40;0.80;;;;;;;27.62;52.53;100286.94;4996144;28;20041;-66
2023/07/29 07:45:49;;;;;;;2.28;1.23;;;;;;;27.70;57.49;100281.88;5005679;28;20049;-66
2023/07/29 07:48:16;;;;;;;2.38;1.40;;;;;;;27.34;52.77;100284.41;5004282;28;20164;-67
2023/07/29 07:50:43;;;;;;;2.53;1.20;;;;;;;27.64;55.41;100275.06;4996247;28;20037;-68
2023/07/29 07:53:08;;;;;;;1.27;0.63;;;;;;;27.54;52.60;100264.13;5006350;28;20060;-66
2023/07/29 07:55:34;;;;;;;2.80;1.48;;;;;;;27.90;52.61;100283.09;5003261;28;20434;-67
2023/07/29 07:57:59;;;;;;;4.47;1.65;;;;;;;27.90;52.83;100248.91;4997914;28;20141;-66
2023/07/29 08:00:25;;;;;;;6.90;1.13;;;;;;;27.74;56.51;100216.78;5004629;28;20046;-66
2023/07/29 08:02:50;;;;;;;9.15;4.22;;;;;;;27.95;60.42;100270.97;4996879;28;20074;-66
2023/07/29 08:05:15;;;;;;;6.75;3.83;;;;;;;27.69;56.25;100194.69;4991552;28;20030;-71
2023/07/29 08:07:41;;;;;;;1.88;0.80;;;;;;;28.38;53.08;100278.53;5004826;28;20399;-69
2023/07/29 08:10:07;;;;;;;2.42;1.90;;;;;;;28.35;56.23;100275.19;4999780;28;20402;-67
2023/07/29 08:12:32;;;;;;;3.92;2.20;;;;;;;28.40;54.81;100270.28;5006711;28;20041;-70
2023/07/29 08:14:58;;;;;;;5.30;2.40;;;;;;;28.05;52.87;100195.63;4996796;28;20541;-70
2023/07/29 08:17:23;;;;;;;1.10;0.73;;;;;;;28.44;51.27;100203.44;5008150;28;20034;-70
2023/07/29 08:19:49;;;;;;;7.68;5.15;;;;;;;27.92;57.95;100189.44;5006940;28;20481;-70
2023/07/29 08:22:16;;;;;;;3.50;1.38;;;;;;;28.28;49.26;100249.66;5007411;28;20122;-71
2023/07/29 08:24:42;;;;;;;3.95;1.48;;;;;;;28.14;51.31;100273.19;5005705;28;20490;-71
2023/07/29 08:27:08;;;;;;;8.52;2.85;;;;;;;28.25;55.27;100272.34;5007072;28;20053;-70
2023/07/29 08:29:33;;;;;;;4.25;2.33;;;;;;;28.16;57.12;100251.47;5004705;28;20045;-73
2023/07/29 08:31:58;;;;;;;8.13;2.35;;;;;;;28.00;55.37;100157.34;5000200;28;20062;-72
2023/07/29 08:34:24;;;;;;;4.88;2.40;;;;;;;28.65;51.59;100174.78;5007180;28;20490;-73
2023/07/29 08:36:49;;;;;;;1.70;0.88;;;;;;;28.87;49.49;100184.75;5006655;28;20548;-72
2023/07/29 08:39:15;;;;;;;3.58;1.45;;;;;;;29.24;47.68;100250.22;5000216;28;20429;-72
2023/07/29 08:41:58;;;;;;;2.88;1.25;;;;;;;29.04;51.25;100183.38;5000524;28;20029;-72
2023/07/29 08:44:33;;;;;;;3.47;0.98;;;;;;;29.52;47.25;100234.44;5000065;28;20037;-71
2023/07/29 08:46:59;;;;;;;1.30;0.75;;;;;;;28.76;46.14;100165.84;4984939;28;20383;-72
2023/07/29 08:49:26;;;;;;;6.10;2.47;;;;;;;28.62;52.17;100246.09;5000041;28;20053;-72
2023/07/29 08:51:53;;;;;;;3.70;2.13;;;;;;;27.92;52.50;100151.69;5002688;28;20347;-73
2023/07/29 08:54:19;;;;;;;1.65;1.52;;;;;;;28.39;51.09;100180.38;5005348;28;20048;-73
2023/07/29 08:56:45;;;;;;;2.63;1.25;;;;;;;29.94;48.47;100215.66;5007708;28;20041;-73
2023/07/29 08:59:12;;;;;;;3.08;1.40;;;;;;;30.61;47.11;100251.50;4992199;28;20746;-73
2023/07/29 09:01:41;;;;;;;3.00;1.38;;;;;;;28.45;50.08;100143.06;4999081;28;20042;-73
2023/07/29 09:04:07;;;;;;;2.08;1.13;;;;;;;29.99;45.77;100213.44;5000908;28;20799;-72
2023/07/29 09:06:34;;;;;;;2.55;1.38;;;;;;;29.26;50.19;100233.88;5001295;28;20046;-71
2023/07/29 09:09:02;;;;;;;1.77;0.98;;;;;;;29.99;48.07;100240.50;5003817;28;20034;-72
2023/07/29 09:11:28;;;;;;;0.80;0.68;;;;;;;30.40;47.09;100216.31;5004700;28;20417;-70
2023/07/29 09:13:53;;;;;;;4.68;1.58;;;;;;;31.36;46.41;100234.03;5001545;28;20062;-72
2023/07/29 09:16:22;;;;;;;3.72;2.05;;;;;;;31.68;45.90;100211.28;5003923;28;20393;-72
2023/07/29 09:18:52;;;;;;;1.08;0.57;;;;;;;31.68;43.22;100233.88;5000152;28;20406;-72
2023/07/29 09:21:22;;;;;;;2.85;1.27;;;;;;;31.31;42.90;100142.25;5000160;28;20116;-73
2023/07/29 09:23:50;;;;;;;1.83;1.13;;;;;;;31.62;43.79;100144.03;5001664;28;20060;-72
2023/07/29 09:26:22;;;;;;;2.42;0.90;;;;;;;31.69;44.16;100207.59;5002902;28;20030;-72
2023/07/29 09:28:57;;;;;;;1.23;1.02;;;;;;;31.33;44.12;100231.63;5003338;28;20552;-73
2023/07/29 09:31:24;;;;;;;1.75;1.05;;;;;;;32.13;43.04;100208.91;5007723;28;20046;-73
2023/07/29 09:33:58;;;;;;;1.63;0.73;;;;;;;31.96;43.41;100153.47;5001835;28;20833;-73
2023/07/29 09:36:24;;;;;;;3.75;1.42;;;;;;;33.07;42.75;100229.03;5004477;28;20049;-72
2023/07/29 09:38:56;;;;;;;1.85;1.10;;;;;;;33.26;42.47;100222.63;5000862;28;20744;-73
2023/07/29 09:41:24;;;;;;;1.80;1.25;;;;;;;32.97;41.29;100152.91;5006155;28;20084;-72
2023/07/29 09:43:57;;;;;;;1.05;0.88;;;;;;;33.36;41.01;100194.34;5008062;28;20045;-73
2023/07/29 09:46:24;;;;;;;2.92;1.83;;;;;;;32.62;39.64;100208.00;4997240;28;20061;-73
2023/07/29 09:48:52;;;;;;;6.35;1.85;;;;;;;31.86;40.96;100209.56;5004618;28;20096;-72
2023/07/29 09:51:17;;;;;;;1.70;0.85;;;;;;;31.29;40.93;100137.97;5010009;28;20615;-73
2023/07/29 09:53:45;;;;;;;1.95;1.48;;;;;;;30.84;42.71;100124.91;5010339;28;20034;-72
2023/07/29 09:56:12;;;;;;;3.85;1.25;;;;;;;32.94;41.80;100177.66;5005064;28;20034;-72
2023/07/29 09:58:38;;;;;;;1.70;0.90;;;;;;;32.87;40.69;100128.47;5005694;28;20042;-72
2023/07/29 10:01:07;;;;;;;1.15;0.63;;;;;;;33.87;39.47;100194.72;5008059;28;20125;-72
2023/07/29 10:03:34;;;;;;;2.58;1.65;;;;;;;34.09;39.65;100201.59;5018202;28;20095;-72
2023/07/29 10:06:04;;;;;;;1.10;0.93;;;;;;;32.64;40.61;100129.88;5007482;28;20022;-73
2023/07/29 10:08:35;;;;;;;1.67;1.25;;;;;;;33.59;40.00;100213.84;5008947;28;20117;-72
2023/07/29 10:11:08;;;;;;;1.90;1.10;;;;;;;33.64;39.03;100216.09;5015146;28;20050;-73
2023/07/29 10:13:34;;;;;;;1.55;1.15;;;;;;;33.03;40.12;100201.22;5007258;28;20042;-72
2023/07/29 10:16:03;;;;;;;1.40;1.02;;;;;;;33.85;38.86;100142.31;5010505;28;20086;-71
2023/07/29 10:18:30;;;;;;;3.50;1.08;;;;;;;34.05;37.67;100202.91;5008310;28;20058;-70
2023/07/29 10:20:57;;;;;;;3.33;1.05;;;;;;;33.44;38.73;100193.59;5021758;28;20036;-69
2023/07/29 10:23:25;;;;;;;1.58;1.20;;;;;;;33.78;38.89;100166.56;5011534;28;20115;-70
2023/07/29 10:25:57;;;;;;;1.55;1.02;;;;;;;34.33;37.87;100160.06;5003403;28;20041;-72
2023/07/29 10:28:28;;;;;;;3.30;1.08;;;;;;;33.88;37.31;100128.41;5003739;28;20060;-75
2023/07/29 10:30:54;;;;;;;1.23;0.95;;;;;;;32.82;38.07;100162.56;5012318;28;20146;-76
2023/07/29 10:33:20;;;;;;;2.55;0.60;;;;;;;33.81;39.28;100165.41;5014882;28;20044;-77
2023/07/29 10:35:46;;;;;;;1.33;0.73;;;;;;;34.65;36.98;100102.19;5012035;28;20496;-75
2023/07/29 10:38:12;;;;;;;1.23;0.73;;;;;;;33.89;37.27;100091.97;5022516;28;20498;-75
2023/07/29 10:40:46;;;;;;;1.42;0.82;;;;;;;34.69;37.63;100176.31;5016419;28;20390;-74
2023/07/29 10:43:14;;;;;;;1.60;1.02;;;;;;;34.03;36.47;100087.81;5006393;28;20045;-73
2023/07/29 10:45:42;;;;;;;1.55;1.00;;;;;;;35.00;35.77;100105.72;5007521;28;20053;-74
2023/07/29 10:48:12;;;;;;;2.22;0.80;;;;;;;35.37;37.13;100144.56;5014651;28;20026;-74
2023/07/29 10:50:38;;;;;;;1.70;1.27;;;;;;;34.66;36.91;100082.09;5015482;28;20113;-75
2023/07/29 10:53:04;;;;;;;1.58;0.90;;;;;;;33.36;36.87;100095.56;5013812;28;20053;-75
2023/07/29 10:55:30;;;;;;;1.73;1.25;;;;;;;34.16;37.03;100167.28;5005587;28;20068;-75
2023/07/29 10:58:11;;;;;;;1.55;1.00;;;;;;;33.82;37.61;100161.69;5007616;28;20062;-75
2023/07/29 11:00:38;;;;;;;1.63;1.53;;;;;;;33.27;37.84;100148.16;5008907;28;20505;-75
2023/07/29 11:03:08;;;;;;;1.80;1.15;;;;;;;31.51;38.49;100066.34;5008536;28;20446;-74
2023/07/29 11:05:46;;;;;;;1.45;0.80;;;;;;;33.28;38.04;100156.19;5005056;28;20136;-74
2023/07/29 11:08:20;;;;;;;2.47;1.10;;;;;;;34.44;36.81;100156.19;4980823;28;20050;-76
2023/07/29 11:11:04;;;;;;;1.80;0.73;;;;;;;32.96;38.09;100145.75;5003778;28;20073;-76
2023/07/29 11:13:32;;;;;;;0.50;0.50;;;;;;;33.49;38.54;100071.56;5001415;28;20390;-76
2023/07/29 11:15:58;;;;;;;2.10;1.27;;;;;;;34.48;36.62;100138.53;5005220;28;20475;-74
2023/07/29 11:18:35;;;;;;;1.98;1.05;;;;;;;34.77;35.44;100145.50;5001378;28;20073;-78
2023/07/29 11:21:02;;;;;;;2.42;1.17;;;;;;;33.87;36.55;100079.53;4984766;28;20030;-81